Time;durP1;ratioP1;P1;durP2;ratioP2;P2;SDS_P1;SDS_P2;PMS_P1;PMS_P2;Temp;Humidity;BMP_temperature;BMP_pressure;BME280_temperature;BME280_humidity;BME280_pressure;Samples;Min_cycle;Max_cycle;Signal;HPM_P1;HPM_P2
2021/03/22 00:01:55;;;;;;;22.30;4.10;;;8.40;99.90;;;;;;5095923;28;20346;-93
2021/03/22 00:04:21;;;;;;;21.43;4.47;;;8.40;99.90;;;;;;5092143;28;20257;-93
2021/03/22 00:06:47;;;;;;;24.07;4.40;;;8.30;99.90;;;;;;5097236;28;20198;-92
2021/03/22 00:09:12;;;;;;;22.20;4.37;;;8.30;99.90;;;;;;5092546;28;20233;-93
2021/03/22 00:11:39;;;;;;;20.30;3.97;;;8.40;99.90;;;;;;5096531;28;20277;-90
2021/03/22 00:14:05;;;;;;;31.17;4.50;;;8.40;99.90;;;;;;5091761;28;20171;-91
2021/03/22 00:16:31;;;;;;;25.30;4.57;;;8.40;99.90;;;;;;5090011;28;20179;-92
2021/03/22 00:18:58;;;;;;;23.07;3.90;;;8.30;99.90;;;;;;5079912;28;20167;-92
2021/03/22 00:21:24;;;;;;;27.10;4.97;;;8.40;99.90;;;;;;5088139;28;20524;-92
2021/03/22 00:23:51;;;;;;;26.07;4.53;;;8.40;99.90;;;;;;5100166;28;20190;-90
2021/03/22 00:26:16;;;;;;;23.60;4.30;;;8.40;99.90;;;;;;5100635;28;20234;-91
2021/03/22 00:28:42;;;;;;;22.53;4.33;;;8.30;99.90;;;;;;5096365;28;20205;-92
2021/03/22 00:31:13;;;;;;;20.70;5.23;;;8.20;99.90;;;;;;5074667;28;20214;-91
2021/03/22 00:33:39;;;;;;;24.43;3.57;;;8.20;99.90;;;;;;5096314;28;20194;-90
2021/03/22 00:36:07;;;;;;;20.93;4.13;;;8.20;99.90;;;;;;5096023;28;20182;-92
2021/03/22 00:38:34;;;;;;;22.57;4.50;;;8.20;99.90;;;;;;5095640;28;20205;-91
2021/03/22 00:41:00;;;;;;;27.20;4.90;;;8.20;99.90;;;;;;5083319;28;20639;-91
2021/03/22 00:43:26;;;;;;;28.00;5.37;;;8.20;99.90;;;;;;5086863;28;20265;-91
2021/03/22 00:45:55;;;;;;;26.20;4.73;;;8.30;99.90;;;;;;5094094;28;20265;-91
2021/03/22 00:48:21;;;;;;;20.13;5.10;;;8.20;99.90;;;;;;5090902;28;20188;-92
2021/03/22 00:50:48;;;;;;;26.83;5.00;;;8.30;99.90;;;;;;5091478;28;20723;-92
2021/03/22 00:53:17;;;;;;;18.80;4.40;;;8.20;99.90;;;;;;5075898;28;20727;-93
2021/03/22 00:55:45;;;;;;;21.00;4.80;;;8.20;99.90;;;;;;5092931;28;20179;-92
2021/03/22 00:58:12;;;;;;;18.57;4.73;;;8.20;99.90;;;;;;5095784;28;20647;-92
2021/03/22 01:00:51;;;;;;;19.97;4.63;;;8.10;99.90;;;;;;5086346;28;20644;-92
2021/03/22 01:03:25;;;;;;;21.80;4.57;;;8.10;99.90;;;;;;5086457;28;20198;-92
2021/03/22 01:05:54;;;;;;;24.87;5.00;;;7.90;99.90;;;;;;5088646;28;20192;-93
2021/03/22 01:08:23;;;;;;;28.70;4.97;;;7.90;99.90;;;;;;5084158;28;20171;-92
2021/03/22 01:11:03;;;;;;;23.53;5.17;;;8.10;99.90;;;;;;5099039;28;20222;-92
2021/03/22 01:13:39;;;;;;;23.23;4.83;;;8.20;99.90;;;;;;5093810;28;20192;-93
2021/03/22 01:16:06;;;;;;;28.27;4.57;;;8.20;99.90;;;;;;5099683;28;20170;-92
2021/03/22 01:18:39;;;;;;;22.70;5.17;;;8.20;99.90;;;;;;5088122;28;20178;-91
2021/03/22 01:21:15;;;;;;;29.93;5.03;;;8.10;99.90;;;;;;5106067;28;20241;-92
2021/03/22 01:23:42;;;;;;;22.73;5.40;;;7.90;99.90;;;;;;5098293;28;20186;-92
2021/03/22 01:26:13;;;;;;;25.53;5.30;;;8.10;99.90;;;;;;5084616;28;20190;-92
2021/03/22 01:28:47;;;;;;;26.23;5.37;;;7.90;99.90;;;;;;5087425;28;20179;-91
2021/03/22 01:31:19;;;;;;;30.23;5.80;;;7.90;99.90;;;;;;5096727;28;20223;-91
2021/03/22 01:33:48;;;;;;;24.80;5.27;;;7.80;99.90;;;;;;5101086;28;20167;-92
2021/03/22 01:36:20;;;;;;;20.00;4.90;;;7.70;99.90;;;;;;5089529;28;20170;-91
2021/03/22 01:38:46;;;;;;;26.20;6.27;;;7.50;99.90;;;;;;5103911;28;20174;-92
2021/03/22 01:41:44;;;;;;;17.90;5.40;;;7.40;99.90;;;;;;5088208;28;20189;-91
2021/03/22 01:44:41;;;;;;;26.60;5.33;;;7.30;99.90;;;;;;5095341;28;20182;-91
2021/03/22 01:47:11;;;;;;;27.90;6.07;;;7.40;99.90;;;;;;5088198;28;20189;-91
2021/03/22 01:49:52;;;;;;;31.43;5.47;;;7.40;99.90;;;;;;5091107;28;20179;-91
2021/03/22 01:52:19;;;;;;;24.80;6.40;;;7.40;99.90;;;;;;5091003;28;20171;-91
2021/03/22 01:54:47;;;;;;;30.50;6.03;;;7.40;99.90;;;;;;5055683;28;20171;-91
2021/03/22 01:57:22;;;;;;;18.47;5.40;;;7.40;99.90;;;;;;5092294;28;20206;-91
2021/03/22 01:59:48;;;;;;;35.10;6.17;;;7.50;99.90;;;;;;5088992;28;20190;-91
2021/03/22 02:02:17;;;;;;;33.17;6.67;;;7.50;99.90;;;;;;5088406;28;20237;-92
2021/03/22 02:04:45;;;;;;;18.57;5.87;;;7.40;99.90;;;;;;5087881;28;20205;-92
2021/03/22 02:07:11;;;;;;;34.30;6.73;;;7.50;99.90;;;;;;5097891;28;20725;-91
2021/03/22 02:09:37;;;;;;;26.10;6.33;;;7.40;99.90;;;;;;5100388;28;20201;-91
2021/03/22 02:12:16;;;;;;;31.17;7.10;;;7.40;99.90;;;;;;5104051;28;20155;-91
2021/03/22 02:14:42;;;;;;;22.77;6.00;;;7.40;99.90;;;;;;5104806;28;20179;-93
2021/03/22 02:17:27;;;;;;;24.10;5.43;;;7.40;99.90;;;;;;5111762;28;20189;-88
2021/03/22 02:20:12;;;;;;;24.10;6.17;;;7.40;99.90;;;;;;5097548;28;20192;-91
2021/03/22 02:22:41;;;;;;;24.67;6.20;;;7.50;99.90;;;;;;5107124;28;20191;-91
2021/03/22 02:25:25;;;;;;;28.77;6.83;;;7.40;99.90;;;;;;5100832;28;20155;-91
2021/03/22 02:28:12;;;;;;;30.30;6.50;;;7.50;99.90;;;;;;5106799;28;20193;-91
2021/03/22 02:31:09;;;;;;;25.57;6.53;;;7.50;99.90;;;;;;5096818;28;20312;-91
2021/03/22 02:34:01;;;;;;;20.87;6.40;;;7.60;99.90;;;;;;5075980;28;20411;-90
2021/03/22 02:37:21;;;;;;;22.90;6.53;;;7.50;99.90;;;;;;5093978;28;20182;-91
2021/03/22 02:40:01;;;;;;;22.83;6.37;;;7.40;99.90;;;;;;5090482;28;20190;-91
2021/03/22 02:42:30;;;;;;;23.27;7.50;;;7.50;99.90;;;;;;5070754;28;20171;-91
2021/03/22 02:44:55;;;;;;;29.47;7.47;;;8.00;99.90;;;;;;5082431;28;20548;-91
2021/03/22 02:47:27;;;;;;;22.40;7.40;;;8.20;99.90;;;;;;5076983;28;20278;-90
2021/03/22 02:49:57;;;;;;;36.00;10.33;;;8.00;99.90;;;;;;5076764;28;20646;-91
2021/03/22 02:52:54;;;;;;;23.87;7.73;;;8.00;99.90;;;;;;5087912;28;20254;-91
2021/03/22 02:55:47;;;;;;;32.87;8.57;;;7.90;99.90;;;;;;5078614;28;20179;-91
2021/03/22 02:58:28;;;;;;;25.53;8.57;;;7.80;99.90;;;;;;5076655;28;20273;-91
2021/03/22 03:01:14;;;;;;;33.43;9.00;;;7.80;99.90;;;;;;5077955;28;20183;-91
2021/03/22 03:03:51;;;;;;;36.80;9.27;;;7.70;99.90;;;;;;5083192;28;20631;-90
2021/03/22 03:06:19;;;;;;;31.63;9.50;;;7.70;99.90;;;;;;5099279;28;20169;-91
2021/03/22 03:08:46;;;;;;;33.23;9.67;;;7.60;99.90;;;;;;5091511;28;20177;-92
2021/03/22 03:11:25;;;;;;;33.83;9.10;;;7.60;99.90;;;;;;5086837;28;20217;-91
2021/03/22 03:13:51;;;;;;;39.70;10.53;;;7.60;99.90;;;;;;5097654;28;20183;-91
2021/03/22 03:16:19;;;;;;;34.13;9.97;;;7.50;99.90;;;;;;5099977;28;20189;-91
2021/03/22 03:18:45;;;;;;;30.57;9.73;;;7.50;99.90;;;;;;5087044;28;20183;-91
2021/03/22 03:21:13;;;;;;;29.73;9.30;;;7.50;99.90;;;;;;5091714;28;20193;-91
2021/03/22 03:23:39;;;;;;;34.43;9.90;;;7.50;99.90;;;;;;5056972;28;20193;-91
2021/03/22 03:26:04;;;;;;;32.87;10.27;;;7.40;99.90;;;;;;5090476;28;20302;-91
2021/03/22 03:28:32;;;;;;;39.43;10.03;;;7.40;99.90;;;;;;5093715;28;20162;-91
2021/03/22 03:30:58;;;;;;;29.43;10.53;;;7.50;99.90;;;;;;5103799;28;20210;-91
2021/03/22 03:33:24;;;;;;;37.17;11.47;;;7.50;99.90;;;;;;5096434;28;20272;-91
2021/03/22 03:35:49;;;;;;;30.20;10.43;;;7.60;99.90;;;;;;5093026;28;20182;-92
2021/03/22 03:38:15;;;;;;;38.73;10.63;;;7.70;99.90;;;;;;5091906;28;20179;-92
2021/03/22 03:40:45;;;;;;;37.30;11.07;;;7.70;99.90;;;;;;5082651;28;20552;-92
2021/03/22 03:43:14;;;;;;;26.40;10.57;;;7.70;99.90;;;;;;5093824;28;20198;-91
2021/03/22 03:45:42;;;;;;;34.30;11.57;;;7.90;99.90;;;;;;5091476;28;20789;-91
2021/03/22 03:48:16;;;;;;;38.97;10.90;;;8.00;99.90;;;;;;5094738;28;20245;-91
2021/03/22 03:50:42;;;;;;;44.43;11.27;;;7.90;99.90;;;;;;5084682;28;20198;-92
2021/03/22 03:53:10;;;;;;;37.53;10.77;;;7.90;99.90;;;;;;5103871;28;20189;-91
2021/03/22 03:55:38;;;;;;;33.37;10.63;;;7.90;99.90;;;;;;5101597;28;20170;-91
2021/03/22 03:58:04;;;;;;;30.50;10.63;;;7.80;99.90;;;;;;5100458;28;20178;-91
2021/03/22 04:00:44;;;;;;;37.70;12.03;;;7.80;99.90;;;;;;5087784;28;20216;-91
2021/03/22 04:03:35;;;;;;;40.07;11.67;;;7.90;99.90;;;;;;5102368;28;20214;-91
2021/03/22 04:06:08;;;;;;;30.93;11.13;;;7.80;99.90;;;;;;5082539;28;20183;-91
2021/03/22 04:08:47;;;;;;;42.40;11.43;;;7.80;99.90;;;;;;5090913;28;20180;-91
2021/03/22 04:11:16;;;;;;;32.53;11.50;;;7.90;99.90;;;;;;5093752;28;20225;-91
2021/03/22 04:13:57;;;;;;;32.30;10.10;;;7.90;99.90;;;;;;5069921;28;20172;-91
2021/03/22 04:16:29;;;;;;;33.17;10.33;;;7.90;99.90;;;;;;5096756;28;20270;-90
2021/03/22 04:18:56;;;;;;;31.77;10.93;;;7.90;99.90;;;;;;5107253;28;20181;-91
2021/03/22 04:21:30;;;;;;;31.60;10.80;;;8.10;99.90;;;;;;5091027;28;20240;-90
2021/03/22 04:24:07;;;;;;;34.30;10.10;;;8.00;99.90;;;;;;5102483;28;20174;-91
2021/03/22 04:26:36;;;;;;;36.00;10.57;;;8.00;99.90;;;;;;5111396;28;20193;-91
2021/03/22 04:29:11;;;;;;;31.60;10.57;;;8.00;99.90;;;;;;5098952;28;20174;-91
2021/03/22 04:31:42;;;;;;;31.33;10.53;;;8.10;99.90;;;;;;5116270;28;20217;-91
2021/03/22 04:34:11;;;;;;;31.37;9.80;;;8.20;99.90;;;;;;5100107;28;20177;-91
2021/03/22 04:36:37;;;;;;;29.20;10.83;;;8.10;99.90;;;;;;5113877;28;20182;-91
2021/03/22 04:39:09;;;;;;;29.37;10.50;;;8.20;99.90;;;;;;5090898;28;20191;-91
2021/03/22 04:41:39;;;;;;;33.33;10.57;;;8.10;99.90;;;;;;5115828;28;20266;-91
2021/03/22 04:44:11;;;;;;;33.80;10.37;;;8.20;99.90;;;;;;5098020;28;20178;-92
2021/03/22 04:46:37;;;;;;;21.90;9.07;;;8.20;99.90;;;;;;5107521;28;20190;-91
2021/03/22 04:49:03;;;;;;;32.73;10.43;;;8.40;99.90;;;;;;5115729;28;20212;-91
2021/03/22 04:51:29;;;;;;;25.83;9.67;;;8.20;99.90;;;;;;5117711;28;20231;-91
2021/03/22 04:53:56;;;;;;;27.60;10.50;;;8.20;99.90;;;;;;5106466;28;20179;-91
2021/03/22 12:18:04;;;;;;;9.10;2.70;;;10.30;98.20;;;;;;5411590;23;20279;-91
2021/03/22 12:20:33;;;;;;;8.43;2.57;;;10.20;98.50;;;;;;4984467;28;20208;-89
2021/03/22 12:22:59;;;;;;;9.50;3.03;;;10.20;98.30;;;;;;4987906;28;20178;-90
2021/03/22 12:25:35;;;;;;;9.97;2.53;;;10.30;98.20;;;;;;4991208;28;20266;-89
2021/03/22 12:28:00;;;;;;;14.03;3.40;;;10.50;97.80;;;;;;4998544;28;20183;-89
2021/03/22 12:30:27;;;;;;;11.77;4.33;;;10.50;98.00;;;;;;4969021;28;20233;-90
2021/03/22 12:32:54;;;;;;;14.67;3.30;;;10.60;98.00;;;;;;4983611;28;20208;-90
2021/03/22 12:35:34;;;;;;;7.77;2.70;;;10.70;97.80;;;;;;4983532;28;20166;-90
2021/03/22 12:38:00;;;;;;;18.50;3.10;;;10.90;97.50;;;;;;4982841;28;20190;-90
2021/03/22 12:40:27;;;;;;;11.27;2.77;;;11.00;97.20;;;;;;4982803;28;20204;-91
2021/03/22 12:42:54;;;;;;;12.50;2.77;;;11.10;96.40;;;;;;4983874;28;20215;-91
2021/03/22 12:45:31;;;;;;;5.43;2.43;;;11.20;96.00;;;;;;5000064;28;20173;-90
2021/03/22 12:47:58;;;;;;;7.87;2.57;;;11.30;95.40;;;;;;4982629;28;20181;-91
2021/03/22 12:50:39;;;;;;;7.13;2.70;;;11.60;94.60;;;;;;4978935;28;20212;-90
2021/03/22 12:53:07;;;;;;;7.77;2.60;;;11.70;94.10;;;;;;4982375;28;20170;-90
2021/03/22 12:55:35;;;;;;;6.97;2.10;;;11.70;94.00;;;;;;4985618;28;20234;-90
2021/03/22 12:58:04;;;;;;;11.07;2.83;;;11.80;93.70;;;;;;4987553;28;20173;-90
2021/03/22 13:00:31;;;;;;;8.43;3.13;;;11.90;93.70;;;;;;4977414;28;20327;-91
2021/03/22 13:02:57;;;;;;;10.57;2.90;;;11.70;94.10;;;;;;4983883;28;20208;-89
2021/03/22 13:05:34;;;;;;;8.63;3.17;;;11.70;94.80;;;;;;5002848;28;20178;-88
2021/03/22 13:08:01;;;;;;;9.23;3.47;;;11.90;94.40;;;;;;5005677;28;20178;-90
2021/03/22 13:10:32;;;;;;;6.77;2.73;;;12.00;94.20;;;;;;4992131;28;20584;-90
2021/03/22 13:13:01;;;;;;;8.07;2.77;;;12.30;94.30;;;;;;4990806;28;20176;-91
2021/03/22 13:15:46;;;;;;;9.47;3.13;;;12.30;94.20;;;;;;5006008;28;20173;-90
2021/03/22 13:18:19;;;;;;;6.93;2.67;;;12.50;93.40;;;;;;4997821;28;20197;-89
2021/03/22 13:20:51;;;;;;;5.03;2.73;;;12.60;93.10;;;;;;4987032;28;20178;-90
2021/03/22 13:23:18;;;;;;;7.53;2.80;;;12.50;92.30;;;;;;4989050;28;20177;-89
2021/03/22 13:25:45;;;;;;;11.00;2.70;;;12.50;92.30;;;;;;4991786;28;20172;-89
2021/03/22 13:28:23;;;;;;;5.40;1.93;;;12.40;92.30;;;;;;4992950;28;20169;-90
2021/03/22 13:30:49;;;;;;;4.90;2.17;;;12.20;91.30;;;;;;5015650;28;20206;-90
2021/03/22 13:33:19;;;;;;;4.07;1.77;;;12.10;91.90;;;;;;5000629;28;20229;-90
2021/03/22 13:35:45;;;;;;;2.37;1.80;;;12.30;91.40;;;;;;4998918;28;20531;-91
2021/03/22 13:38:18;;;;;;;4.50;1.57;;;12.30;91.20;;;;;;5000706;28;20529;-89
2021/03/22 13:40:44;;;;;;;6.03;2.37;;;12.50;90.50;;;;;;5002244;28;20674;-89
2021/03/22 13:43:20;;;;;;;5.80;2.13;;;12.50;90.60;;;;;;5001401;28;20170;-89
2021/03/22 13:45:48;;;;;;;3.83;2.03;;;12.60;90.60;;;;;;4989006;28;20173;-90
2021/03/22 13:48:14;;;;;;;6.97;2.00;;;12.70;90.50;;;;;;5004069;28;20174;-90
2021/03/22 13:50:40;;;;;;;3.77;1.90;;;12.40;90.40;;;;;;4968004;28;20293;-88
2021/03/22 13:53:06;;;;;;;7.03;2.20;;;12.10;91.00;;;;;;4994182;28;20197;-89
2021/03/22 13:55:32;;;;;;;7.13;2.33;;;11.90;91.40;;;;;;4982479;28;20170;-89
2021/03/22 13:57:59;;;;;;;8.17;2.13;;;11.70;91.70;;;;;;4987883;28;20172;-93
2021/03/22 14:00:26;;;;;;;6.27;2.20;;;11.80;92.00;;;;;;5013801;28;20157;-88
2021/03/22 14:02:52;;;;;;;7.80;2.73;;;11.80;91.80;;;;;;4989651;28;20634;-90
2021/03/22 14:05:26;;;;;;;6.77;2.73;;;11.80;91.80;;;;;;5001498;28;20165;-89
2021/03/22 14:07:52;;;;;;;11.63;2.90;;;11.70;92.80;;;;;;5003589;28;20182;-90
2021/03/22 14:10:21;;;;;;;10.53;2.77;;;11.60;92.80;;;;;;5009656;28;20154;-89
2021/03/22 14:12:47;;;;;;;6.47;2.90;;;11.50;93.00;;;;;;4987807;28;20638;-90
2021/03/22 14:15:38;;;;;;;8.50;3.33;;;11.50;93.00;;;;;;4980415;28;20174;-89
2021/03/22 14:18:07;;;;;;;8.63;2.87;;;11.40;93.10;;;;;;4995429;28;20188;-86
2021/03/22 14:20:34;;;;;;;9.80;3.53;;;11.40;93.60;;;;;;4996082;28;20170;-88
2021/03/22 14:23:00;;;;;;;9.63;3.67;;;11.50;93.90;;;;;;4982344;28;20230;-91
2021/03/22 14:25:25;;;;;;;10.73;2.70;;;11.40;93.70;;;;;;4991822;28;20211;-89
2021/03/22 14:27:51;;;;;;;5.20;2.13;;;11.20;92.70;;;;;;4995657;28;20172;-89
2021/03/22 14:30:23;;;;;;;9.47;2.67;;;11.10;93.20;;;;;;4995664;28;20174;-88
2021/03/22 14:32:49;;;;;;;9.90;2.93;;;10.90;93.50;;;;;;4995595;28;20530;-88
2021/03/22 14:35:15;;;;;;;8.50;3.07;;;10.90;93.80;;;;;;4999056;28;20192;-88
2021/03/22 14:37:41;;;;;;;11.07;3.40;;;11.00;94.00;;;;;;4983682;28;20174;-88
2021/03/22 14:40:08;;;;;;;6.53;2.90;;;11.10;94.20;;;;;;4984369;28;20186;-88
2021/03/22 14:42:34;;;;;;;5.10;2.50;;;11.20;93.90;;;;;;4999070;28;20612;-89
2021/03/22 14:44:59;;;;;;;7.30;2.23;;;11.30;92.90;;;;;;4998703;28;20168;-88
2021/03/22 14:47:26;;;;;;;5.60;1.93;;;11.40;92.10;;;;;;4998954;28;20174;-88
2021/03/22 14:49:53;;;;;;;7.17;2.43;;;11.50;92.10;;;;;;4995670;28;20650;-88
2021/03/22 14:52:19;;;;;;;9.90;2.83;;;11.60;91.20;;;;;;4982854;28;20208;-89
2021/03/22 14:54:46;;;;;;;6.03;2.60;;;11.70;91.00;;;;;;4984736;28;20170;-87
2021/03/22 14:57:13;;;;;;;4.33;2.00;;;11.80;90.20;;;;;;4999426;28;20178;-88
2021/03/22 14:59:41;;;;;;;4.57;2.43;;;11.90;88.00;;;;;;4987120;28;20165;-88
2021/03/22 15:02:07;;;;;;;7.93;2.80;;;12.00;86.70;;;;;;4999812;28;20673;-87
2021/03/22 15:04:33;;;;;;;6.10;2.50;;;12.00;85.60;;;;;;4996150;28;20200;-88
2021/03/22 15:07:00;;;;;;;4.90;2.60;;;12.30;85.30;;;;;;4994427;28;20173;-88
2021/03/22 15:09:26;;;;;;;6.47;2.80;;;12.50;85.00;;;;;;4980866;28;20273;-87
2021/03/22 15:11:52;;;;;;;10.97;3.00;;;12.60;82.10;;;;;;4998809;28;20575;-88
2021/03/22 15:14:19;;;;;;;8.40;3.23;;;12.40;83.10;;;;;;4994616;28;20181;-90
2021/03/22 15:16:44;;;;;;;5.00;2.73;;;12.30;82.80;;;;;;4979909;28;20221;-89
2021/03/22 15:19:11;;;;;;;8.77;3.13;;;12.30;83.40;;;;;;4995566;28;20182;-89
2021/03/22 15:21:37;;;;;;;5.20;2.73;;;12.30;83.30;;;;;;4996958;28;20169;-89
2021/03/22 15:24:03;;;;;;;11.60;3.00;;;12.30;82.30;;;;;;4979660;28;20174;-89
2021/03/22 15:26:28;;;;;;;4.70;2.33;;;12.20;82.40;;;;;;4996206;28;20181;-89
2021/03/22 15:28:54;;;;;;;7.47;2.90;;;12.10;82.50;;;;;;4995115;28;20653;-89
2021/03/22 15:31:20;;;;;;;9.03;2.83;;;12.10;83.30;;;;;;4995480;28;20322;-88
2021/03/22 15:33:46;;;;;;;6.13;2.33;;;12.10;83.50;;;;;;4994887;28;20173;-89
2021/03/22 15:36:19;;;;;;;7.23;2.70;;;12.10;83.30;;;;;;4995663;28;20177;-88
2021/03/22 15:38:45;;;;;;;5.40;2.50;;;12.20;82.60;;;;;;4995068;28;20174;-89
2021/03/22 15:41:20;;;;;;;5.90;2.73;;;12.30;82.70;;;;;;4994171;28;20184;-92
2021/03/22 15:43:46;;;;;;;6.20;2.83;;;12.20;82.60;;;;;;4995790;28;20531;-89
2021/03/22 15:46:12;;;;;;;7.07;3.10;;;12.30;82.40;;;;;;4996357;28;20174;-91
2021/03/22 15:48:39;;;;;;;8.13;3.30;;;12.20;83.10;;;;;;4994809;28;20192;-91
2021/03/22 15:51:10;;;;;;;8.40;2.93;;;12.30;83.20;;;;;;4979871;28;20201;-88
2021/03/22 15:53:36;;;;;;;7.53;2.77;;;12.20;81.70;;;;;;4996748;28;20262;-90
2021/03/22 15:56:06;;;;;;;6.67;3.07;;;12.20;82.50;;;;;;4995720;28;20200;-90
2021/03/22 15:58:32;;;;;;;10.67;3.23;;;12.10;82.80;;;;;;4992336;28;20205;-89
2021/03/22 16:00:58;;;;;;;6.00;3.07;;;12.20;82.50;;;;;;5010749;28;20653;-87
2021/03/22 16:03:24;;;;;;;8.57;3.17;;;12.40;82.50;;;;;;4983807;28;20236;-90
2021/03/22 16:05:53;;;;;;;5.87;3.03;;;12.50;82.10;;;;;;4979381;28;20174;-89
2021/03/22 16:08:20;;;;;;;10.00;3.37;;;13.20;82.10;;;;;;4980193;28;20171;-91
2021/03/22 16:31:29;;;;;;;9.77;3.33;;;15.70;66.20;;;;;;6008380;23;20184;-84
2021/03/22 16:33:54;;;;;;;9.00;3.70;;;15.40;66.30;;;;;;4976531;28;20183;-86
2021/03/22 16:36:20;;;;;;;6.83;3.43;;;15.40;66.30;;;;;;4976500;28;20205;-87
2021/03/22 16:38:46;;;;;;;7.80;3.43;;;15.40;66.70;;;;;;4979635;28;20619;-83
2021/03/22 16:41:18;;;;;;;8.50;3.60;;;15.00;67.00;;;;;;4976774;28;20185;-83
2021/03/22 16:43:44;;;;;;;11.00;3.67;;;14.60;67.90;;;;;;4976465;28;20178;-90
2021/03/22 16:46:23;;;;;;;8.30;3.30;;;14.20;69.00;;;;;;4977105;28;20166;-83
2021/03/22 16:48:49;;;;;;;6.83;3.33;;;14.10;69.40;;;;;;4976123;28;20545;-81
2021/03/22 16:51:14;;;;;;;10.40;3.90;;;13.60;71.20;;;;;;4995658;28;20233;-82
2021/03/22 16:53:40;;;;;;;4.93;3.10;;;13.60;71.40;;;;;;4997382;28;20184;-89
2021/03/22 16:56:08;;;;;;;10.10;3.97;;;13.60;71.90;;;;;;4979824;28;20189;-89
2021/03/22 16:58:34;;;;;;;12.67;3.50;;;13.60;71.40;;;;;;4979658;28;20212;-88
2021/03/22 17:01:00;;;;;;;8.43;3.53;;;13.60;71.60;;;;;;4975570;28;20219;-90
2021/03/22 17:03:26;;;;;;;10.40;3.50;;;13.60;72.20;;;;;;4960092;28;20222;-90
2021/03/22 17:05:54;;;;;;;6.73;3.00;;;13.60;72.80;;;;;;4977323;28;20616;-82
2021/03/22 17:08:24;;;;;;;10.13;3.77;;;13.40;73.40;;;;;;4959956;28;20182;-90
2021/03/22 17:10:49;;;;;;;9.07;3.40;;;13.20;74.00;;;;;;4975772;28;20198;-89
2021/03/22 17:13:16;;;;;;;13.47;3.70;;;13.20;74.20;;;;;;4975987;28;20664;-88
2021/03/22 17:15:42;;;;;;;10.73;3.53;;;12.90;74.60;;;;;;4972196;28;20613;-89
2021/03/22 17:18:09;;;;;;;8.20;3.80;;;12.90;74.00;;;;;;4959781;28;20687;-82
2021/03/22 17:20:35;;;;;;;13.40;3.83;;;12.90;73.80;;;;;;4971064;28;20171;-82
2021/03/22 17:23:03;;;;;;;10.27;4.20;;;12.90;74.70;;;;;;4957587;28;20167;-85
2021/03/22 17:25:54;;;;;;;10.33;3.83;;;12.70;75.20;;;;;;4973115;28;20183;-81
2021/03/22 17:28:21;;;;;;;9.20;3.60;;;12.60;75.00;;;;;;4975864;28;20183;-79
2021/03/22 17:30:47;;;;;;;8.00;3.70;;;12.30;76.30;;;;;;4975919;28;20598;-82
2021/03/22 17:33:14;;;;;;;8.87;3.97;;;12.50;75.60;;;;;;4962928;28;20197;-83
2021/03/22 17:35:40;;;;;;;9.40;3.70;;;12.30;76.20;;;;;;4975603;28;20209;-82
2021/03/22 17:38:06;;;;;;;8.70;3.70;;;12.20;76.70;;;;;;4960491;28;20194;-84
2021/03/22 17:40:35;;;;;;;10.60;3.70;;;12.20;76.80;;;;;;4978786;28;20653;-81
2021/03/22 17:43:02;;;;;;;8.03;3.57;;;12.30;76.20;;;;;;4972072;28;20177;-81
2021/03/22 17:45:32;;;;;;;5.33;3.60;;;12.10;77.00;;;;;;4974963;28;20181;-79
2021/03/22 17:47:58;;;;;;;10.03;3.77;;;12.00;77.30;;;;;;4957787;28;20221;-81
2021/03/22 17:50:26;;;;;;;9.60;3.97;;;12.00;78.30;;;;;;4975053;28;20167;-81
2021/03/22 17:52:51;;;;;;;8.57;4.20;;;11.80;78.80;;;;;;4974269;28;20171;-81
2021/03/22 17:55:18;;;;;;;8.80;4.10;;;12.00;77.80;;;;;;4970041;28;20561;-80
2021/03/22 17:57:44;;;;;;;12.17;4.17;;;11.90;78.40;;;;;;4973609;28;20551;-79
2021/03/22 18:00:11;;;;;;;11.43;3.77;;;11.80;79.10;;;;;;4973959;28;20163;-79
2021/03/22 18:02:37;;;;;;;11.17;3.83;;;11.70;79.30;;;;;;4974634;28;20264;-79
2021/03/22 18:05:05;;;;;;;13.90;4.07;;;11.60;79.20;;;;;;4973108;28;20163;-81
2021/03/22 18:07:30;;;;;;;11.57;4.50;;;11.60;80.50;;;;;;4968163;28;20174;-79
2021/03/22 18:09:56;;;;;;;9.13;3.80;;;11.70;80.00;;;;;;4952020;28;20917;-81
2021/03/22 18:12:22;;;;;;;6.60;3.73;;;11.60;79.90;;;;;;4968297;28;20238;-80
2021/03/22 18:14:47;;;;;;;11.07;4.10;;;11.50;80.80;;;;;;4968320;28;20183;-79
2021/03/22 18:17:13;;;;;;;14.60;4.03;;;11.50;80.10;;;;;;4972466;28;20186;-80
2021/03/22 18:19:39;;;;;;;7.67;3.80;;;11.60;80.00;;;;;;4969585;28;20238;-81
2021/03/22 18:22:07;;;;;;;11.07;4.10;;;11.80;79.50;;;;;;4956578;28;20654;-80
2021/03/22 18:24:33;;;;;;;12.33;3.90;;;11.80;79.60;;;;;;4954107;28;20178;-81
2021/03/22 18:27:00;;;;;;;12.67;3.90;;;11.60;80.10;;;;;;4951046;28;20538;-80
2021/03/22 18:29:26;;;;;;;8.10;3.87;;;11.40;81.30;;;;;;4954867;28;20171;-80
2021/03/22 18:31:53;;;;;;;9.77;3.80;;;11.30;81.60;;;;;;4967133;28;20228;-79
2021/03/22 18:34:20;;;;;;;7.00;4.23;;;11.50;80.20;;;;;;4964456;28;20545;-79
2021/03/22 18:36:48;;;;;;;14.00;4.93;;;11.60;79.50;;;;;;4950966;28;20262;-80
2021/03/22 18:39:13;;;;;;;12.20;4.37;;;11.50;80.30;;;;;;4953961;28;20230;-79
2021/03/22 18:41:39;;;;;;;9.60;4.10;;;11.40;80.70;;;;;;4969648;28;20183;-82
2021/03/22 18:44:06;;;;;;;12.27;4.67;;;11.30;81.20;;;;;;4954696;28;20626;-85
2021/03/22 18:46:31;;;;;;;11.97;4.63;;;11.30;81.90;;;;;;4947653;28;20226;-79
2021/03/22 18:48:57;;;;;;;10.10;4.23;;;11.10;82.80;;;;;;4966163;28;20318;-87
2021/03/22 18:51:23;;;;;;;13.73;4.60;;;11.00;83.20;;;;;;4970376;28;20226;-81
2021/03/22 18:53:48;;;;;;;11.40;4.43;;;10.90;84.70;;;;;;4948527;28;20185;-81
2021/03/22 18:56:14;;;;;;;8.17;4.20;;;10.90;85.20;;;;;;4955564;28;20631;-81
2021/03/22 18:58:40;;;;;;;8.83;4.47;;;10.90;84.60;;;;;;4971791;28;20182;-80
2021/03/22 19:01:07;;;;;;;11.47;4.63;;;11.00;84.90;;;;;;4969940;28;20207;-81
2021/03/22 19:03:33;;;;;;;12.17;4.77;;;11.00;84.70;;;;;;4973421;28;20183;-81
2021/03/22 19:05:59;;;;;;;16.67;7.90;;;11.10;83.90;;;;;;4967735;28;20272;-88
2021/03/22 19:08:25;;;;;;;19.77;8.90;;;11.20;82.90;;;;;;4954136;28;20637;-91
2021/03/22 19:10:52;;;;;;;19.57;9.90;;;11.30;83.50;;;;;;4972375;28;20222;-84
2021/03/22 19:13:21;;;;;;;20.17;11.00;;;11.30;82.80;;;;;;4947549;28;20178;-88
2021/03/22 19:15:48;;;;;;;14.77;7.90;;;11.30;82.60;;;;;;4952492;28;20654;-83
2021/03/22 19:18:14;;;;;;;14.90;7.50;;;11.20;83.10;;;;;;4946401;28;20185;-86
2021/03/22 19:20:42;;;;;;;13.53;5.70;;;11.10;83.20;;;;;;4972639;28;20169;-81
2021/03/22 19:23:17;;;;;;;13.27;5.97;;;11.40;82.20;;;;;;4968880;28;20810;-80
2021/03/22 19:25:43;;;;;;;13.53;5.50;;;11.40;82.30;;;;;;4954628;28;20229;-81
2021/03/22 19:28:08;;;;;;;12.40;5.80;;;11.40;82.00;;;;;;4970161;28;20182;-87
2021/03/22 19:30:34;;;;;;;25.40;11.10;;;11.40;82.60;;;;;;4950906;28;20197;-85
2021/03/22 19:33:00;;;;;;;11.77;6.73;;;11.30;83.20;;;;;;4954530;28;20246;-83
2021/03/22 19:35:29;;;;;;;12.83;5.50;;;11.10;84.60;;;;;;4965074;28;20186;-81
2021/03/22 19:37:56;;;;;;;12.80;6.60;;;11.10;85.10;;;;;;4939806;28;20257;-81
2021/03/22 19:40:22;;;;;;;15.07;7.40;;;10.90;85.10;;;;;;4960558;28;20715;-82
2021/03/22 19:42:49;;;;;;;17.90;8.07;;;10.90;85.10;;;;;;4958704;28;20526;-85
2021/03/22 19:45:19;;;;;;;26.67;9.27;;;11.00;84.80;;;;;;4967456;28;20678;-85
2021/03/22 19:47:44;;;;;;;22.77;13.10;;;11.00;85.10;;;;;;4969739;28;20661;-85
2021/03/22 19:50:14;;;;;;;36.83;21.47;;;11.20;84.00;;;;;;4973512;28;20179;-81
2021/03/22 19:52:40;;;;;;;18.10;8.73;;;11.40;82.90;;;;;;4977012;28;20190;-87
2021/03/22 19:55:08;;;;;;;16.67;8.73;;;11.20;84.00;;;;;;4971891;28;20169;-87
2021/03/22 19:57:33;;;;;;;10.93;6.73;;;11.30;83.50;;;;;;4974604;28;20789;-82
2021/03/22 19:59:59;;;;;;;16.73;7.47;;;11.30;83.20;;;;;;4973243;28;20206;-86
2021/03/22 20:02:25;;;;;;;13.97;8.80;;;11.10;83.90;;;;;;4973142;28;20178;-87
2021/03/22 20:04:50;;;;;;;23.50;9.83;;;10.90;86.20;;;;;;4973954;28;20171;-85
2021/03/22 20:07:16;;;;;;;16.80;9.77;;;10.70;88.90;;;;;;4976725;28;20177;-84
2021/03/22 20:09:42;;;;;;;21.63;10.27;;;10.60;89.50;;;;;;4974879;28;20193;-87
2021/03/22 20:12:11;;;;;;;18.37;9.63;;;10.60;90.00;;;;;;4971763;28;20589;-85
2021/03/22 20:14:37;;;;;;;14.77;8.97;;;10.60;90.00;;;;;;4952338;28;20304;-83
2021/03/22 20:17:03;;;;;;;25.17;12.33;;;10.50;90.50;;;;;;4970960;28;20326;-86
2021/03/22 20:19:29;;;;;;;18.90;9.97;;;10.60;89.80;;;;;;4960367;28;20537;-88
2021/03/22 20:21:54;;;;;;;17.33;9.00;;;10.50;90.00;;;;;;4976963;28;20273;-81
2021/03/22 20:24:22;;;;;;;19.87;10.90;;;10.60;89.80;;;;;;4975940;28;20599;-83
2021/03/22 20:26:48;;;;;;;31.47;19.93;;;11.00;88.30;;;;;;4975296;28;20181;-81
2021/03/22 20:29:13;;;;;;;30.90;14.87;;;10.90;87.60;;;;;;4976006;28;20621;-81
2021/03/22 20:31:39;;;;;;;36.23;21.10;;;10.80;88.00;;;;;;4975904;28;20230;-88
2021/03/22 20:34:04;;;;;;;23.17;12.47;;;10.70;88.60;;;;;;4976706;28;20170;-89
2021/03/22 20:36:30;;;;;;;18.30;8.70;;;10.70;89.10;;;;;;4977015;28;20173;-87